Time;durP1;ratioP1;P1;durP2;ratioP2;P2;SDS_P1;SDS_P2;PMS_P1;PMS_P2;Temp;Humidity;BMP_temperature;BMP_pressure;BME280_temperature;BME280_humidity;BME280_pressure;Samples;Min_cycle;Max_cycle;Signal;HPM_P1;HPM_P2
2021/06/01 00:03:07;;;;;;;4.97;2.83;;;;;;;12.41;51.12;100870.38;8364180;34;25419;-74
2021/06/01 00:08:11;;;;;;;4.05;2.30;;;;;;;12.44;51.07;100871.97;8386105;34;20420;-73
2021/06/01 00:13:14;;;;;;;5.82;2.50;;;;;;;12.58;50.43;100869.00;8386323;34;20429;-73
2021/06/01 00:18:16;;;;;;;3.25;2.47;;;;;;;12.58;50.06;100861.75;8362767;34;20339;-72
2021/06/01 00:23:20;;;;;;;4.35;2.30;;;;;;;12.57;51.23;100864.59;8385843;34;20385;-72
2021/06/01 00:28:23;;;;;;;3.90;2.60;;;;;;;12.36;51.63;100861.81;8385745;34;20434;-73
2021/06/01 00:33:26;;;;;;;3.10;2.58;;;;;;;12.36;51.00;100859.97;8386394;34;20513;-72
2021/06/01 00:38:30;;;;;;;4.80;2.38;;;;;;;12.10;51.30;100856.66;8389018;34;20436;-72
2021/06/01 00:43:33;;;;;;;3.85;2.40;;;;;;;11.97;52.36;100855.91;8403142;28;20329;-70
2021/06/01 00:48:36;;;;;;;4.85;2.33;;;;;;;11.91;52.43;100851.03;8391067;34;20416;-70
2021/06/01 00:53:40;;;;;;;3.38;2.13;;;;;;;11.80;52.51;100859.09;8391755;34;20430;-70
2021/06/01 00:58:42;;;;;;;3.78;2.10;;;;;;;11.77;53.41;100859.34;8391158;34;20294;-71
2021/06/01 01:03:46;;;;;;;3.53;2.42;;;;;;;11.68;53.87;100850.13;8391412;34;20149;-71
2021/06/01 01:08:53;;;;;;;3.42;2.63;;;;;;;11.52;53.46;100853.19;8390864;33;20881;-71
2021/06/01 01:14:00;;;;;;;2.30;2.10;;;;;;;11.53;53.65;100857.59;8391076;34;20412;-71
2021/06/01 01:19:11;;;;;;;3.63;2.70;;;;;;;11.56;54.14;100857.34;8390897;34;20626;-70
2021/06/01 01:24:35;;;;;;;2.70;2.33;;;;;;;11.56;54.20;100856.50;8390148;34;20397;-71
2021/06/01 01:29:40;;;;;;;4.00;2.47;;;;;;;11.49;53.63;100851.59;8390680;34;20432;-71
2021/06/01 01:34:44;;;;;;;4.20;2.60;;;;;;;11.46;53.79;100851.84;8390213;34;20126;-70
2021/06/01 01:39:53;;;;;;;4.53;2.70;;;;;;;11.36;54.59;100847.28;8390588;34;20126;-70
2021/06/01 01:44:57;;;;;;;4.03;3.13;;;;;;;11.39;55.23;100849.72;8389732;34;20402;-70
2021/06/01 01:50:05;;;;;;;3.97;2.60;;;;;;;11.39;55.31;100853.25;8389401;33;20386;-70
2021/06/01 01:55:10;;;;;;;5.13;3.58;;;;;;;11.19;55.73;100852.13;8390046;34;20390;-70
2021/06/01 02:00:17;;;;;;;3.58;2.95;;;;;;;10.99;56.53;100850.88;8390187;34;20233;-70
2021/06/01 02:05:21;;;;;;;6.82;3.17;;;;;;;10.67;57.37;100853.31;8389313;34;20413;-70
2021/06/01 02:10:24;;;;;;;6.60;3.55;;;;;;;10.51;57.84;100850.03;8389202;33;20414;-71
2021/06/01 02:15:27;;;;;;;4.90;3.40;;;;;;;10.52;58.38;100857.13;8387658;34;20415;-70
2021/06/01 02:20:31;;;;;;;4.45;3.28;;;;;;;10.55;58.00;100852.38;8388195;34;20405;-70
2021/06/01 02:25:40;;;;;;;9.02;4.13;;;;;;;10.59;57.81;100851.19;8386944;34;20425;-70
2021/06/01 02:30:53;;;;;;;5.38;3.13;;;;;;;10.67;57.56;100855.13;8388113;33;20416;-71
2021/06/01 02:35:59;;;;;;;4.93;3.30;;;;;;;10.74;57.47;100859.94;8387993;34;20407;-72
2021/06/01 02:41:05;;;;;;;6.18;3.58;;;;;;;10.66;57.42;100854.25;8389329;34;20534;-71
2021/06/01 02:46:08;;;;;;;5.88;3.72;;;;;;;10.80;57.30;100842.50;8388652;34;20416;-71
2021/06/01 02:51:17;;;;;;;6.25;3.95;;;;;;;10.86;56.86;100830.41;8398539;34;20484;-71
2021/06/01 02:56:20;;;;;;;6.03;3.78;;;;;;;10.92;55.97;100838.91;8402166;34;20282;-71
2021/06/01 03:01:25;;;;;;;5.60;3.85;;;;;;;10.61;56.92;100841.19;8407952;34;20414;-71
2021/06/01 03:06:30;;;;;;;4.28;3.15;;;;;;;10.02;59.24;100834.81;8400648;34;20183;-71
2021/06/01 03:11:33;;;;;;;5.30;3.33;;;;;;;9.93;59.96;100830.97;8405716;34;20561;-71
2021/06/01 03:16:36;;;;;;;5.68;3.50;;;;;;;9.10;63.25;100843.84;8394569;34;20414;-71
2021/06/01 03:21:40;;;;;;;5.75;3.30;;;;;;;9.09;63.21;100839.47;8391211;34;20420;-71
2021/06/01 03:26:43;;;;;;;6.22;3.53;;;;;;;9.32;63.10;100830.69;8387924;33;20663;-71
2021/06/01 03:31:45;;;;;;;5.07;3.42;;;;;;;9.62;61.99;100827.69;8388058;34;20902;-70
2021/06/01 03:36:50;;;;;;;3.70;3.33;;;;;;;9.87;60.80;100821.53;8387648;34;20351;-71
2021/06/01 03:41:53;;;;;;;4.95;3.42;;;;;;;9.95;60.41;100834.38;8387622;34;20336;-70
2021/06/01 03:46:55;;;;;;;6.57;3.47;;;;;;;10.04;60.42;100830.16;8386969;33;20846;-71
2021/06/01 03:52:00;;;;;;;5.60;3.05;;;;;;;9.82;60.63;100831.69;8387456;33;20320;-71
2021/06/01 03:57:05;;;;;;;5.18;3.72;;;;;;;9.60;61.42;100829.66;8387018;34;20133;-71
2021/06/01 04:02:08;;;;;;;7.32;3.78;;;;;;;9.47;61.84;100828.78;8363808;34;20428;-71
2021/06/01 04:07:12;;;;;;;5.78;3.50;;;;;;;9.49;61.71;100816.13;8386656;34;20421;-70
2021/06/01 04:12:14;;;;;;;4.63;3.83;;;;;;;9.81;61.71;100813.84;8386464;34;20421;-71
2021/06/01 04:17:17;;;;;;;6.55;4.25;;;;;;;10.29;60.46;100827.44;8387311;34;20142;-71
2021/06/01 04:22:22;;;;;;;7.10;4.43;;;;;;;10.50;59.72;100826.81;8376421;34;20415;-71
2021/06/01 04:27:24;;;;;;;5.53;4.13;;;;;;;10.65;58.59;100820.31;8386936;33;20441;-71
2021/06/01 04:32:27;;;;;;;8.40;4.05;;;;;;;10.85;58.09;100826.88;8387622;34;20402;-71
2021/06/01 04:37:31;;;;;;;7.03;4.35;;;;;;;10.97;57.76;100827.78;8387749;34;20444;-71
2021/06/01 04:42:34;;;;;;;7.13;4.20;;;;;;;10.98;57.94;100822.31;8383609;34;20402;-71
2021/06/01 04:47:36;;;;;;;4.68;4.00;;;;;;;10.99;57.91;100834.75;8386668;34;20125;-71
2021/06/01 04:52:41;;;;;;;6.18;3.85;;;;;;;10.90;58.60;100827.41;8387026;34;20443;-71
2021/06/01 04:57:44;;;;;;;5.70;4.03;;;;;;;10.78;60.16;100837.25;8386479;34;20338;-71
2021/06/01 05:02:46;;;;;;;6.55;3.95;;;;;;;11.02;59.67;100837.22;8397128;34;20598;-71
2021/06/01 05:07:52;;;;;;;6.28;5.07;;;;;;;11.19;59.27;100833.28;8387193;34;20264;-71
2021/06/01 05:12:55;;;;;;;15.45;10.05;;;;;;;11.40;57.80;100835.28;8394366;34;20427;-71
2021/06/01 05:17:58;;;;;;;13.95;9.98;;;;;;;11.50;57.33;100830.91;8408723;34;20126;-70
2021/06/01 05:23:02;;;;;;;17.77;11.02;;;;;;;11.61;56.81;100839.00;8397309;34;20294;-71
2021/06/01 05:28:06;;;;;;;14.57;11.00;;;;;;;11.72;56.47;100832.78;8390614;34;20419;-71
2021/06/01 05:33:13;;;;;;;19.55;10.93;;;;;;;11.79;56.72;100825.91;8392108;34;20407;-71
2021/06/01 05:38:18;;;;;;;13.07;7.70;;;;;;;11.85;57.35;100830.00;8391543;33;20354;-71
2021/06/01 05:43:21;;;;;;;9.57;5.35;;;;;;;11.98;57.09;100846.84;8388112;34;20192;-72
2021/06/01 05:48:24;;;;;;;7.60;5.03;;;;;;;12.23;56.52;100843.06;8392018;34;20417;-71
2021/06/01 05:53:28;;;;;;;6.85;4.35;;;;;;;12.36;55.79;100851.03;8388396;34;20137;-71
2021/06/01 05:58:31;;;;;;;6.75;4.97;;;;;;;12.54;55.44;100846.84;8391320;34;20448;-71
2021/06/01 06:03:34;;;;;;;6.53;5.28;;;;;;;12.64;55.42;100840.69;8385135;34;20409;-71
2021/06/01 06:08:38;;;;;;;9.35;5.93;;;;;;;12.93;55.07;100838.25;8388866;34;20122;-71
2021/06/01 06:13:41;;;;;;;9.88;5.22;;;;;;;13.24;55.52;100848.16;8389733;34;20703;-71
2021/06/01 06:18:51;;;;;;;7.05;5.50;;;;;;;13.58;55.05;100847.16;8391566;34;20922;-71
2021/06/01 06:23:55;;;;;;;9.50;4.95;;;;;;;13.94;54.12;100838.53;8391271;34;20855;-71
2021/06/01 06:28:57;;;;;;;8.13;5.13;;;;;;;14.26;52.58;100851.06;8367549;34;20457;-71
2021/06/01 06:34:01;;;;;;;6.32;4.43;;;;;;;14.44;51.91;100845.00;8390073;34;21021;-71
2021/06/01 06:39:07;;;;;;;6.05;4.32;;;;;;;14.85;52.40;100843.09;8390660;34;20428;-72
2021/06/01 06:44:12;;;;;;;5.38;4.35;;;;;;;15.18;51.07;100839.94;8390479;34;20420;-71
2021/06/01 06:49:14;;;;;;;5.57;3.85;;;;;;;15.65;49.55;100840.03;8389229;34;20902;-71
2021/06/01 06:54:18;;;;;;;5.05;3.50;;;;;;;15.88;47.46;100832.44;8389145;34;20365;-71
2021/06/01 06:59:21;;;;;;;11.48;3.47;;;;;;;16.12;48.16;100831.88;8387791;34;20158;-71
2021/06/01 07:04:25;;;;;;;4.65;3.67;;;;;;;16.34;47.67;100835.25;8387966;34;20872;-71
2021/06/01 07:09:29;;;;;;;4.03;3.35;;;;;;;16.63;47.20;100826.94;8388883;34;20481;-71
2021/06/01 07:14:45;;;;;;;5.50;3.50;;;;;;;16.91;45.59;100837.72;8387002;34;20475;-72
2021/06/01 07:19:51;;;;;;;5.78;3.13;;;;;;;17.30;44.34;100821.97;8388909;34;20538;-71
2021/06/01 07:24:55;;;;;;;6.15;3.42;;;;;;;17.55;43.90;100822.16;8389321;34;20400;-71
2021/06/01 07:29:57;;;;;;;6.38;3.95;;;;;;;17.92;43.67;100813.72;8388243;34;20390;-71
2021/06/01 07:35:01;;;;;;;6.07;3.17;;;;;;;18.21;42.52;100816.13;8397315;34;20324;-71
2021/06/01 07:40:07;;;;;;;6.60;3.10;;;;;;;18.63;41.30;100819.81;8411210;33;20221;-71
2021/06/01 07:45:11;;;;;;;4.95;2.63;;;;;;;18.94;40.43;100815.44;8413726;34;20440;-71
2021/06/01 07:50:14;;;;;;;4.35;2.60;;;;;;;19.43;39.05;100812.72;8363265;34;20433;-71
2021/06/01 07:55:18;;;;;;;3.10;2.80;;;;;;;19.82;37.92;100806.53;8386515;34;20928;-71
2021/06/01 08:00:22;;;;;;;4.60;2.78;;;;;;;19.94;35.87;100803.44;8384805;33;20432;-71
2021/06/01 08:05:25;;;;;;;4.88;2.63;;;;;;;20.06;36.28;100807.50;8388016;34;20401;-71
2021/06/01 08:10:29;;;;;;;2.80;2.22;;;;;;;20.42;35.40;100805.13;8388032;34;20146;-71
2021/06/01 08:15:32;;;;;;;3.75;2.55;;;;;;;20.97;33.80;100793.16;8387303;34;20213;-71
2021/06/01 08:20:36;;;;;;;3.92;2.63;;;;;;;21.74;32.82;100791.28;8387158;34;20405;-71
2021/06/01 08:25:40;;;;;;;3.37;2.50;;;;;;;22.24;31.19;100779.59;8382387;34;20248;-71
2021/06/01 08:30:43;;;;;;;5.80;2.95;;;;;;;22.20;31.58;100785.63;8383393;34;20407;-71
2021/06/01 08:35:46;;;;;;;3.28;2.28;;;;;;;21.95;31.80;100779.63;8382521;34;20443;-71
2021/06/01 08:40:51;;;;;;;3.47;2.50;;;;;;;21.81;32.62;100767.66;8356034;34;20204;-71
2021/06/01 08:45:56;;;;;;;3.47;2.42;;;;;;;22.23;33.07;100771.56;8383358;34;20883;-70
2021/06/01 08:50:59;;;;;;;3.05;2.60;;;;;;;22.50;32.66;100772.75;8380910;34;20418;-71
2021/06/01 08:56:04;;;;;;;3.13;2.38;;;;;;;22.74;32.37;100769.66;8380122;34;20427;-71
2021/06/01 09:01:06;;;;;;;3.97;2.85;;;;;;;22.46;30.99;100774.16;8387850;33;20929;-71
2021/06/01 09:06:19;;;;;;;3.53;2.58;;;;;;;22.54;30.52;100769.44;8384137;34;20422;-69
2021/06/01 09:11:43;;;;;;;3.63;3.08;;;;;;;22.75;29.05;100762.28;8373606;34;20381;-70
2021/06/01 09:22:07;;;;;;;3.67;2.50;;;;;;;22.96;30.77;100762.25;8363207;34;20424;-71
2021/06/01 09:27:16;;;;;;;4.90;2.55;;;;;;;23.68;27.54;100763.03;8390116;34;20418;-71
2021/06/01 09:32:18;;;;;;;3.60;2.35;;;;;;;23.75;28.46;100761.19;8398423;34;20958;-71
2021/06/01 09:37:25;;;;;;;2.53;2.33;;;;;;;23.38;27.86;100755.03;8388080;34;20407;-71
2021/06/01 09:42:31;;;;;;;4.22;2.47;;;;;;;23.57;27.26;100741.66;8391091;34;20661;-71
2021/06/01 09:47:42;;;;;;;2.88;2.50;;;;;;;23.41;27.05;100734.59;8364672;34;20317;-71
2021/06/01 09:52:46;;;;;;;4.25;2.00;;;;;;;24.35;28.30;100738.66;8389586;33;20431;-71
2021/06/01 09:57:51;;;;;;;4.03;2.65;;;;;;;24.50;25.67;100732.00;8366211;34;20417;-71
2021/06/01 10:02:58;;;;;;;2.67;2.42;;;;;;;23.94;26.95;100732.19;8391081;34;20610;-71
2021/06/01 10:08:11;;;;;;;3.35;2.55;;;;;;;23.92;27.37;100739.78;8390350;34;20853;-71
2021/06/01 10:13:16;;;;;;;5.13;2.70;;;;;;;24.04;26.66;100729.91;8390619;33;20465;-71
2021/06/01 10:18:20;;;;;;;3.05;2.53;;;;;;;24.52;27.75;100721.66;8390215;34;20559;-71
2021/06/01 10:23:27;;;;;;;5.68;2.67;;;;;;;25.53;25.76;100714.22;8390281;34;20852;-71
2021/06/01 10:28:33;;;;;;;5.00;2.65;;;;;;;25.66;26.67;100702.38;8390037;34;20422;-71
2021/06/01 10:33:39;;;;;;;3.38;2.65;;;;;;;25.05;27.23;100700.78;8390145;34;20566;-70
2021/06/01 10:50:09;;;;;;;3.15;2.50;;;;;;;25.79;26.81;100678.44;8381054;34;20413;-71
2021/06/01 10:55:12;;;;;;;2.92;2.45;;;;;;;26.55;26.19;100690.53;8389604;34;20453;-71
2021/06/01 11:06:07;;;;;;;2.80;2.60;;;;;;;27.49;24.38;100680.38;8389938;34;20423;-70
2021/06/01 11:11:35;;;;;;;3.08;2.40;;;;;;;27.45;25.65;100673.63;8389056;34;20423;-71
2021/06/01 11:16:56;;;;;;;2.25;2.05;;;;;;;27.22;24.08;100667.94;8389032;34;20414;-71
2021/06/01 11:22:02;;;;;;;3.47;2.40;;;;;;;26.97;25.04;100652.28;8388699;34;20414;-70
2021/06/01 11:38:21;;;;;;;2.50;2.30;;;;;;;27.57;24.80;100638.69;8219878;34;20763;-71
2021/06/01 11:43:26;;;;;;;3.08;2.30;;;;;;;27.96;24.94;100635.66;8355238;34;20417;-71
2021/06/01 11:53:55;;;;;;;2.47;2.28;;;;;;;28.36;24.79;100643.38;8388976;34;20388;-70
2021/06/01 12:04:21;;;;;;;2.55;2.20;;;;;;;29.27;23.72;100619.09;8387886;34;20417;-71
2021/06/01 12:20:29;;;;;;;2.97;2.50;;;;;;;29.30;23.75;100602.00;8310255;34;20430;-71
2021/06/01 12:25:31;;;;;;;3.40;2.60;;;;;;;30.50;22.25;100588.25;8387383;34;20433;-71
2021/06/01 12:41:49;;;;;;;2.40;2.20;;;;;;;29.66;22.15;100586.16;8330885;34;20859;-71
2021/06/01 12:47:07;;;;;;;2.88;2.45;;;;;;;29.91;22.52;100577.50;8392793;34;20410;-70
2021/06/01 13:14:53;;;;;;;4.18;2.40;;;;;;;31.23;21.32;100555.81;8391578;34;20132;-71
2021/06/01 13:19:59;;;;;;;3.92;3.03;;;;;;;30.74;21.93;100550.97;8392159;34;20388;-71
2021/06/01 13:30:39;;;;;;;3.15;2.40;;;;;;;30.52;22.00;100538.97;8391618;34;20989;-71
2021/06/01 13:46:29;;;;;;;2.53;2.30;;;;;;;31.71;20.75;100518.94;8390589;34;20413;-71
2021/06/01 13:56:56;;;;;;;4.85;2.75;;;;;;;31.07;21.14;100513.13;8390836;34;20610;-71
2021/06/01 14:02:28;;;;;;;5.05;2.47;;;;;;;30.07;22.16;100513.00;8391271;34;20863;-71
2021/06/01 15:49:31;;;;;;;6.20;2.72;;;;;;;31.62;21.37;100414.97;8388402;34;20620;-71
2021/06/01 16:21:44;;;;;;;3.97;2.90;;;;;;;31.19;22.54;100402.94;8393961;34;20420;-71
2021/06/01 16:32:21;;;;;;;3.75;3.20;;;;;;;29.72;24.12;100395.03;8388116;34;20928;-71
2021/06/01 16:43:07;;;;;;;4.35;2.90;;;;;;;37.07;18.45;100367.69;8388225;34;20138;-71
2021/06/01 17:04:33;;;;;;;5.07;3.25;;;;;;;36.94;18.04;100371.25;8386824;34;20522;-71
2021/06/01 17:15:09;;;;;;;4.45;3.00;;;;;;;34.98;20.26;100377.00;8386909;34;20416;-71
2021/06/01 17:31:17;;;;;;;3.63;3.28;;;;;;;37.17;17.14;100361.13;8392819;34;20289;-71
2021/06/01 17:36:21;;;;;;;4.72;3.42;;;;;;;36.28;18.75;100361.69;8392393;34;20424;-71
2021/06/01 17:41:29;;;;;;;6.45;3.50;;;;;;;35.22;19.21;100360.41;8391614;34;20367;-71
2021/06/01 17:46:35;;;;;;;3.60;3.30;;;;;;;33.13;21.06;100364.44;8390783;34;20135;-71
2021/06/01 17:51:41;;;;;;;4.45;3.53;;;;;;;29.85;24.43;100365.34;8391398;34;20428;-70
2021/06/01 17:56:45;;;;;;;24.35;3.95;;;;;;;28.13;26.65;100360.59;8390872;34;20401;-72
2021/06/01 18:01:49;;;;;;;3.30;3.00;;;;;;;26.90;27.95;100359.34;8392047;33;20433;-71
2021/06/01 18:06:56;;;;;;;4.38;3.60;;;;;;;26.15;28.15;100365.94;8391065;34;20323;-71
2021/06/01 18:12:14;;;;;;;3.70;3.33;;;;;;;25.55;30.18;100360.94;8391252;33;20415;-71
2021/06/01 19:01:11;;;;;;;5.35;3.70;;;;;;;23.14;35.44;100359.06;8381525;34;20910;-71
2021/06/01 19:21:28;;;;;;;5.53;3.80;;;;;;;22.54;36.84;100360.72;8384816;34;20409;-71
2021/06/01 19:44:21;;;;;;;5.22;3.78;;;;;;;21.57;40.72;100377.91;8395902;34;20846;-71
2021/06/01 19:54:49;;;;;;;8.52;4.38;;;;;;;21.36;42.09;100379.59;8393867;34;20416;-72
2021/06/01 19:59:54;;;;;;;5.32;4.05;;;;;;;21.10;42.97;100380.19;8384830;34;20146;-71
2021/06/01 20:05:00;;;;;;;6.20;4.20;;;;;;;20.90;43.06;100379.06;8392954;34;20141;-72
2021/06/01 20:10:06;;;;;;;5.33;4.00;;;;;;;20.76;42.87;100387.13;8402883;34;20425;-71
2021/06/01 20:15:12;;;;;;;5.80;4.15;;;;;;;20.66;43.26;100377.53;8426881;33;20881;-70
2021/06/01 20:20:21;;;;;;;4.70;4.30;;;;;;;20.54;42.40;100378.03;8400049;33;20126;-71
2021/06/01 20:25:24;;;;;;;4.88;4.22;;;;;;;20.44;42.73;100382.09;8408040;33;21254;-70
2021/06/01 20:30:28;;;;;;;6.70;4.22;;;;;;;20.31;42.50;100378.13;8449845;33;20420;-71
2021/06/01 20:35:33;;;;;;;5.85;4.55;;;;;;;20.17;43.06;100378.94;8523696;33;20435;-71
2021/06/01 20:40:36;;;;;;;4.97;4.50;;;;;;;20.13;43.17;100373.03;8526664;33;20144;-71
2021/06/01 20:45:42;;;;;;;5.70;4.22;;;;;;;20.01;43.12;100376.41;8523419;33;20149;-70
2021/06/01 20:50:47;;;;;;;5.55;4.53;;;;;;;19.97;43.50;100386.00;8524350;33;20431;-71
2021/06/01 20:55:50;;;;;;;6.25;4.70;;;;;;;19.87;42.79;100386.25;8533229;33;20152;-70
2021/06/01 21:00:55;;;;;;;7.13;4.72;;;;;;;19.87;43.16;100389.81;8530104;33;20431;-71
2021/06/01 21:06:01;;;;;;;4.72;4.30;;;;;;;19.92;42.95;100383.81;8529630;33;20436;-70
2021/06/01 21:11:08;;;;;;;5.22;4.18;;;;;;;19.83;43.43;100374.88;8534682;33;20220;-71
2021/06/01 21:16:12;;;;;;;6.57;4.50;;;;;;;19.72;43.38;100379.91;8544349;33;20151;-71
2021/06/01 21:21:16;;;;;;;5.82;4.40;;;;;;;19.63;43.91;100379.13;8546946;33;20874;-70
2021/06/01 21:26:20;;;;;;;5.35;4.35;;;;;;;19.51;44.24;100372.41;8544757;33;20415;-71
2021/06/01 21:31:24;;;;;;;6.60;4.63;;;;;;;19.35;44.91;100376.09;8544989;33;21001;-70
2021/06/01 21:36:28;;;;;;;8.90;5.47;;;;;;;19.24;45.40;100375.50;8544716;33;20152;-70
2021/06/01 21:41:32;;;;;;;8.90;4.93;;;;;;;19.20;46.16;100363.28;8544033;33;20425;-70
2021/06/01 21:46:37;;;;;;;5.30;4.28;;;;;;;19.16;46.34;100377.44;8546984;33;20136;-71
2021/06/01 21:51:41;;;;;;;6.32;5.00;;;;;;;19.10;46.81;100375.44;8548212;33;20149;-71
2021/06/01 21:56:45;;;;;;;6.15;4.25;;;;;;;19.08;46.60;100372.88;8549012;33;20454;-71
2021/06/01 22:01:49;;;;;;;6.60;4.78;;;;;;;19.09;46.76;100371.00;8545804;33;20152;-70
2021/06/01 22:06:53;;;;;;;7.05;5.07;;;;;;;19.01;46.92;100377.38;8541881;33;20415;-70
2021/06/01 22:11:56;;;;;;;8.35;4.80;;;;;;;18.91;47.00;100365.88;8542905;33;20438;-70
2021/06/01 22:17:04;;;;;;;6.32;4.80;;;;;;;18.95;47.02;100359.03;8540268;33;20526;-70
2021/06/01 22:22:10;;;;;;;6.10;4.70;;;;;;;18.84;47.90;100368.47;8539998;33;20929;-70
2021/06/01 22:27:13;;;;;;;6.13;5.03;;;;;;;18.78;48.11;100378.16;8543042;33;20423;-70
2021/06/01 22:32:17;;;;;;;7.28;5.07;;;;;;;18.72;48.15;100375.28;8540974;33;20423;-70
2021/06/01 22:37:22;;;;;;;8.80;5.65;;;;;;;18.77;48.28;100379.16;8513748;33;20990;-71
2021/06/01 22:42:25;;;;;;;8.68;5.22;;;;;;;18.36;49.25;100375.78;8445578;33;20612;-71
2021/06/01 22:47:28;;;;;;;7.80;5.40;;;;;;;18.26;49.80;100383.28;8445509;33;20497;-70
2021/06/01 22:52:33;;;;;;;8.60;5.93;;;;;;;18.33;49.25;100379.69;8445398;33;20429;-71
2021/06/01 22:57:38;;;;;;;9.00;5.45;;;;;;;18.19;50.25;100376.88;8444054;33;20605;-70
2021/06/01 23:02:47;;;;;;;12.57;6.45;;;;;;;17.15;53.24;100373.84;8453986;33;20425;-70
2021/06/01 23:07:54;;;;;;;7.18;5.25;;;;;;;17.08;54.16;100385.50;8437362;33;20321;-71
2021/06/01 23:13:03;;;;;;;7.90;5.25;;;;;;;17.32;54.16;100401.00;8437544;33;20935;-70
2021/06/01 23:18:08;;;;;;;8.30;4.97;;;;;;;17.33;53.85;100402.69;8436005;33;20423;-70
2021/06/01 23:23:12;;;;;;;10.52;5.85;;;;;;;17.47;52.24;100386.59;8445527;33;20129;-71
2021/06/01 23:28:15;;;;;;;8.02;5.90;;;;;;;17.49;52.41;100389.13;8444241;33;20641;-70
2021/06/01 23:33:18;;;;;;;7.75;5.13;;;;;;;17.42;53.01;100377.28;8444565;33;20587;-71
2021/06/01 23:38:33;;;;;;;7.88;5.63;;;;;;;17.42;52.24;100372.69;8448395;33;20141;-70
2021/06/01 23:43:36;;;;;;;7.72;5.57;;;;;;;17.41;52.52;100365.53;8444603;33;20891;-70
2021/06/01 23:54:01;;;;;;;8.95;5.80;;;;;;;17.83;50.88;100358.22;8443565;33;20833;-70
2021/06/01 23:59:03;;;;;;;7.63;5.45;;;;;;;17.81;50.76;100355.69;8448406;33;20852;-70
